Time;durP1;ratioP1;P1;durP2;ratioP2;P2;SDS_P1;SDS_P2;PMS_P1;PMS_P2;Temp;Humidity;BMP_temperature;BMP_pressure;BME280_temperature;BME280_humidity;BME280_pressure;Samples;Min_cycle;Max_cycle;Signal;HPM_P1;HPM_P2
2024/04/16 00:00:45;;;;;;;7.75;0.73;;;;;;;-146.25;100.00;52424.97;2195622;26;36317;-69
2024/04/16 00:01:47;;;;;;;4.30;0.70;;;;;;;-146.25;100.00;52388.47;2196737;26;20006;-70
2024/04/16 00:02:49;;;;;;;6.22;0.80;;;;;;;-146.25;100.00;52378.34;2209962;26;29871;-69
2024/04/16 00:03:51;;;;;;;4.35;0.60;;;;;;;-146.25;100.00;52374.28;2197094;26;34804;-70
2024/04/16 00:04:53;;;;;;;6.95;1.00;;;;;;;-146.25;100.00;52388.47;2196580;26;33659;-70
2024/04/16 00:05:56;;;;;;;6.25;0.70;;;;;;;-146.25;100.00;52376.31;2196186;27;33444;-70
2024/04/16 00:06:58;;;;;;;3.00;0.65;;;;;;;-146.25;100.00;52364.13;2195673;27;36072;-70
2024/04/16 00:08:00;;;;;;;4.70;0.70;;;;;;;-146.25;100.00;52400.63;2197038;26;36890;-70
2024/04/16 00:09:02;;;;;;;4.05;0.90;;;;;;;-146.25;100.00;52410.78;2196749;26;33022;-69
2024/04/16 00:10:04;;;;;;;5.47;0.70;;;;;;;-146.25;100.00;52372.25;2197507;27;20005;-68
2024/04/16 00:11:07;;;;;;;6.28;0.70;;;;;;;-146.25;100.00;52356.03;2196524;27;20010;-69
2024/04/16 00:12:11;;;;;;;8.52;0.80;;;;;;;-146.25;100.00;52390.50;2196209;26;32453;-70
2024/04/16 00:13:33;;;;;;;3.97;1.05;;;;;;;-146.25;100.00;52408.75;2197091;26;20240;-70
2024/04/16 00:14:52;;;;;;;3.85;0.63;;;;;;;-146.25;100.00;52396.59;2196839;26;20035;-70
2024/04/16 00:15:54;;;;;;;5.20;0.90;;;;;;;-146.25;100.00;52384.41;2182350;27;20071;-70
2024/04/16 00:16:55;;;;;;;2.45;0.65;;;;;;;-146.25;100.00;52416.84;2182763;27;20157;-69
2024/04/16 00:17:57;;;;;;;5.15;0.75;;;;;;;-146.25;100.00;52416.84;2196162;26;20157;-69
2024/04/16 00:19:01;;;;;;;2.67;0.77;;;;;;;-146.25;100.00;52368.19;2211028;26;20024;-70
2024/04/16 00:20:05;;;;;;;5.57;0.90;;;;;;;-146.25;100.00;52396.59;2196303;26;34625;-70
2024/04/16 00:21:07;;;;;;;4.65;0.95;;;;;;;-146.25;100.00;52433.06;2196714;27;20024;-70
2024/04/16 00:22:11;;;;;;;4.45;0.70;;;;;;;-146.25;100.00;52386.44;2196254;26;20124;-70
2024/04/16 00:23:13;;;;;;;5.15;0.80;;;;;;;-146.25;100.00;52412.81;2197212;26;24546;-69
2024/04/16 00:24:15;;;;;;;5.20;0.95;;;;;;;-146.25;100.00;52427.00;2196901;26;30790;-69
2024/04/16 00:25:17;;;;;;;4.18;0.70;;;;;;;-146.25;100.00;52418.88;2197335;26;21150;-69
2024/04/16 00:26:19;;;;;;;3.63;1.05;;;;;;;-146.25;100.00;52414.84;2196182;27;26869;-69
2024/04/16 00:27:21;;;;;;;1.83;0.80;;;;;;;-146.25;100.00;52388.47;2196050;27;37091;-70
2024/04/16 00:28:23;;;;;;;3.63;0.80;;;;;;;-146.25;100.00;52396.59;2196582;27;31441;-68
2024/04/16 00:29:24;;;;;;;4.70;0.80;;;;;;;-146.25;100.00;52396.59;2196747;26;34971;-68
2024/04/16 00:30:26;;;;;;;4.05;1.00;;;;;;;-146.25;100.00;52406.72;2196593;27;32399;-69
2024/04/16 00:31:28;;;;;;;6.47;0.70;;;;;;;-146.25;100.00;52404.69;2196723;26;35995;-69
2024/04/16 00:32:30;;;;;;;5.15;0.80;;;;;;;-146.25;100.00;52408.75;2197076;26;21016;-70
2024/04/16 00:33:32;;;;;;;3.17;0.60;;;;;;;-146.25;100.00;52392.53;2196830;26;33147;-70
2024/04/16 00:34:35;;;;;;;7.07;0.82;;;;;;;-146.25;100.00;52406.72;2197249;26;20073;-70
2024/04/16 00:35:37;;;;;;;4.93;0.70;;;;;;;-146.25;100.00;52380.38;2196924;26;28957;-70
2024/04/16 00:36:41;;;;;;;2.90;0.60;;;;;;;-146.25;100.00;52368.19;2195650;26;32939;-69
2024/04/16 00:37:43;;;;;;;3.72;0.70;;;;;;;-146.25;100.00;52420.91;2196036;26;38125;-70
2024/04/16 00:38:47;;;;;;;2.25;0.70;;;;;;;-146.25;100.00;52388.47;2196866;26;30337;-69
2024/04/16 00:39:49;;;;;;;3.25;0.68;;;;;;;-146.25;100.00;52443.22;2181476;27;38349;-70
2024/04/16 00:40:51;;;;;;;5.18;0.63;;;;;;;-146.25;100.00;52364.13;2181794;27;32874;-71
2024/04/16 00:41:52;;;;;;;3.53;0.75;;;;;;;-146.25;100.00;52414.84;2197201;26;34477;-69
2024/04/16 00:42:57;;;;;;;4.82;1.15;;;;;;;-146.25;100.00;52394.56;2197158;27;21040;-69
2024/04/16 00:43:59;;;;;;;3.28;0.60;;;;;;;-146.25;100.00;52408.75;2196751;26;36926;-70
2024/04/16 00:45:02;;;;;;;3.13;0.40;;;;;;;-146.25;100.00;52351.97;2209878;26;32878;-70
2024/04/16 00:46:06;;;;;;;5.03;0.50;;;;;;;-146.25;100.00;52427.00;2209754;26;31540;-69
2024/04/16 00:47:10;;;;;;;0.82;0.40;;;;;;;-146.25;100.00;52410.78;2197284;26;20006;-69
2024/04/16 00:48:15;;;;;;;2.72;0.40;;;;;;;-146.25;100.00;52408.75;2196177;26;20009;-70
2024/04/16 00:49:17;;;;;;;2.58;0.30;;;;;;;-146.25;100.00;52424.97;2195653;27;33421;-69
2024/04/16 00:50:22;;;;;;;1.25;0.30;;;;;;;-146.25;100.00;52392.53;2196783;26;34593;-69
2024/04/16 00:51:24;;;;;;;5.47;0.20;;;;;;;-146.25;100.00;52408.75;2195849;26;34388;-70
2024/04/16 00:52:26;;;;;;;0.93;0.28;;;;;;;-146.25;100.00;52376.31;2196061;27;30382;-67
2024/04/16 00:53:31;;;;;;;1.15;0.30;;;;;;;-146.25;100.00;52416.84;2196477;26;38311;-70
2024/04/16 00:54:34;;;;;;;0.55;0.20;;;;;;;-146.25;100.00;52412.81;2195715;27;33101;-70
2024/04/16 00:55:36;;;;;;;3.40;0.30;;;;;;;-146.25;100.00;52390.50;2196280;26;35933;-70
2024/04/16 00:56:39;;;;;;;2.38;0.20;;;;;;;-146.25;100.00;52424.97;2209839;26;31965;-70
2024/04/16 00:57:42;;;;;;;2.15;0.20;;;;;;;-146.25;100.00;52388.47;2195755;27;35056;-70
2024/04/16 00:58:45;;;;;;;0.82;0.10;;;;;;;-146.25;100.00;52418.88;2195888;27;37196;-69
2024/04/16 00:59:48;;;;;;;1.95;0.20;;;;;;;-146.25;100.00;52424.97;2196556;26;34487;-71
2024/04/16 01:00:50;;;;;;;1.17;0.10;;;;;;;-146.25;100.00;52368.19;2195671;26;34605;-70
2024/04/16 01:01:56;;;;;;;1.88;0.20;;;;;;;-146.25;100.00;52412.81;2195962;27;34751;-70
2024/04/16 01:02:57;;;;;;;1.77;0.20;;;;;;;-146.25;100.00;52431.06;2195463;27;35310;-70
2024/04/16 01:03:59;;;;;;;0.95;0.10;;;;;;;-146.25;100.00;52445.25;2196007;26;39046;-71
2024/04/16 01:05:01;;;;;;;1.10;0.20;;;;;;;-146.25;100.00;52396.59;2210102;26;30938;-70
2024/04/16 01:06:04;;;;;;;1.17;0.10;;;;;;;-146.25;100.00;52376.31;2210091;26;36409;-71
2024/04/16 01:07:08;;;;;;;0.30;0.10;;;;;;;-146.25;100.00;52402.66;2209681;26;35971;-70
2024/04/16 01:08:12;;;;;;;1.73;0.10;;;;;;;-146.25;100.00;52420.91;2196611;26;31294;-70
2024/04/16 01:09:17;;;;;;;0.90;0.10;;;;;;;-146.25;100.00;52420.91;2195407;27;36680;-70
2024/04/16 01:10:19;;;;;;;1.90;0.10;;;;;;;-146.25;100.00;52429.03;2196228;26;31216;-70
2024/04/16 01:11:30;;;;;;;2.15;0.10;;;;;;;-146.25;100.00;52406.72;2196542;26;34245;-69
2024/04/16 01:12:42;;;;;;;0.85;0.13;;;;;;;-146.25;100.00;52410.78;2196643;26;38949;-71
2024/04/16 01:13:46;;;;;;;0.30;0.10;;;;;;;-146.25;100.00;52398.59;2196521;26;30825;-70
2024/04/16 01:14:49;;;;;;;0.65;0.10;;;;;;;-146.25;100.00;52424.97;2197321;26;20941;-70
2024/04/16 01:15:51;;;;;;;1.33;0.10;;;;;;;-146.25;100.00;52443.22;2196322;26;35124;-70
2024/04/16 01:16:54;;;;;;;1.50;0.20;;;;;;;-146.25;100.00;52384.41;2195907;27;34172;-70
2024/04/16 01:17:57;;;;;;;1.48;0.10;;;;;;;-146.25;100.00;52416.84;2195263;26;30086;-71
2024/04/16 01:19:00;;;;;;;2.70;0.10;;;;;;;-146.25;100.00;52443.22;2196977;26;28606;-70
2024/04/16 01:20:03;;;;;;;0.68;0.10;;;;;;;-146.25;100.00;52392.53;2196375;26;27614;-70
2024/04/16 01:21:07;;;;;;;0.77;0.10;;;;;;;-146.25;100.00;52416.84;2197611;26;20006;-70
2024/04/16 01:22:10;;;;;;;0.73;0.10;;;;;;;-146.25;100.00;52392.53;2196297;26;33381;-71
2024/04/16 01:23:14;;;;;;;0.85;0.10;;;;;;;-146.25;100.00;52416.84;2196784;26;35031;-71
2024/04/16 01:24:17;;;;;;;1.10;0.10;;;;;;;-146.25;100.00;52427.00;2196293;26;34291;-71
2024/04/16 01:25:18;;;;;;;1.40;0.10;;;;;;;-146.25;100.00;52435.09;2196362;27;20115;-71
2024/04/16 01:26:20;;;;;;;2.05;0.20;;;;;;;-146.25;100.00;52398.59;2195353;27;37361;-71
2024/04/16 01:27:22;;;;;;;1.15;0.20;;;;;;;-146.25;100.00;52406.72;2197200;26;32183;-71
2024/04/16 01:28:24;;;;;;;1.30;0.20;;;;;;;-146.25;100.00;52406.72;2196162;26;36899;-71
2024/04/16 01:29:26;;;;;;;1.27;0.20;;;;;;;-146.25;100.00;52424.97;2196440;26;38998;-70
2024/04/16 01:30:28;;;;;;;1.13;0.20;;;;;;;-146.25;100.00;52435.09;2197044;26;20107;-70
2024/04/16 01:31:33;;;;;;;1.08;0.10;;;;;;;-146.25;100.00;52412.81;2196431;26;38471;-71
2024/04/16 01:32:38;;;;;;;2.13;0.30;;;;;;;-146.25;100.00;52427.00;2196416;26;30928;-71
2024/04/16 01:33:42;;;;;;;1.42;0.20;;;;;;;-146.25;100.00;52394.56;2195295;26;33765;-70
2024/04/16 01:34:44;;;;;;;1.67;0.10;;;;;;;-146.25;100.00;52386.44;2196263;26;34345;-71
2024/04/16 01:35:46;;;;;;;1.95;0.20;;;;;;;-146.25;100.00;52398.59;2195631;27;41661;-70
2024/04/16 01:36:50;;;;;;;5.18;0.15;;;;;;;-146.25;100.00;52410.78;2195390;27;34645;-71
2024/04/16 01:37:52;;;;;;;2.60;0.20;;;;;;;-146.25;100.00;52384.41;2196713;26;36718;-71
2024/04/16 01:38:54;;;;;;;0.50;0.20;;;;;;;-146.25;100.00;52410.78;2196294;26;34885;-70
2024/04/16 01:39:58;;;;;;;1.45;0.20;;;;;;;-146.25;100.00;52380.38;2196320;26;40166;-71
2024/04/16 01:41:05;;;;;;;2.10;0.20;;;;;;;-146.25;100.00;52398.59;2196863;26;20017;-71
2024/04/16 01:42:07;;;;;;;1.85;0.20;;;;;;;-146.25;100.00;52435.09;2196765;26;34558;-70
2024/04/16 01:43:09;;;;;;;1.05;0.20;;;;;;;-146.25;100.00;52408.75;2196192;26;35191;-70
2024/04/16 01:44:13;;;;;;;2.22;0.10;;;;;;;-146.25;100.00;52392.53;2196639;26;33407;-71
2024/04/16 01:45:15;;;;;;;2.05;0.10;;;;;;;-146.25;100.00;52388.47;2196144;26;34250;-71
2024/04/16 01:46:17;;;;;;;2.38;0.20;;;;;;;-146.25;100.00;52402.66;2196545;26;36747;-70
2024/04/16 01:47:21;;;;;;;2.72;0.20;;;;;;;-146.25;100.00;52429.03;2196737;26;20045;-71
2024/04/16 01:48:25;;;;;;;4.78;0.20;;;;;;;-146.25;100.00;52394.56;2196181;26;35876;-71
2024/04/16 01:49:27;;;;;;;4.57;0.28;;;;;;;-146.25;100.00;52414.84;2195585;27;32427;-70
2024/04/16 01:50:29;;;;;;;1.88;0.30;;;;;;;-146.25;100.00;52380.38;2195783;27;35518;-70
2024/04/16 01:51:30;;;;;;;1.15;0.20;;;;;;;-146.25;100.00;52376.31;2195168;27;30839;-71
2024/04/16 01:52:32;;;;;;;3.13;0.28;;;;;;;-146.25;100.00;52427.00;2195762;27;35724;-71
2024/04/16 01:53:34;;;;;;;1.38;0.20;;;;;;;-146.25;100.00;52410.78;2196945;26;20136;-70
2024/04/16 01:54:36;;;;;;;2.25;0.30;;;;;;;-146.25;100.00;52380.38;2196570;26;36823;-71
2024/04/16 01:55:38;;;;;;;1.75;0.20;;;;;;;-146.25;100.00;52380.38;2196056;26;33581;-70
2024/04/16 01:56:40;;;;;;;1.88;0.20;;;;;;;-146.25;100.00;52386.44;2197237;26;21643;-70
2024/04/16 01:57:45;;;;;;;4.22;0.30;;;;;;;-146.25;100.00;52402.66;2196091;26;36409;-71
2024/04/16 01:58:47;;;;;;;3.70;0.35;;;;;;;-146.25;100.00;52414.84;2195848;26;33264;-71
2024/04/16 01:59:48;;;;;;;1.50;0.30;;;;;;;-146.25;100.00;52396.59;2195189;26;34776;-70
2024/04/16 02:00:58;;;;;;;2.00;0.30;;;;;;;-146.25;100.00;52390.50;2187575;26;34984;-70
2024/04/16 02:02:01;;;;;;;1.85;0.20;;;;;;;-146.25;100.00;52364.13;2196887;26;20997;-70
2024/04/16 02:03:03;;;;;;;2.13;0.30;;;;;;;-146.25;100.00;52402.66;2196296;26;37695;-71
2024/04/16 02:04:05;;;;;;;1.77;0.20;;;;;;;-146.25;100.00;52427.00;2196086;26;35161;-69
2024/04/16 02:05:08;;;;;;;1.92;0.20;;;;;;;-146.25;100.00;52424.97;2196390;27;34821;-70
2024/04/16 02:06:12;;;;;;;2.83;0.20;;;;;;;-146.25;100.00;52427.00;2196113;26;35912;-70
2024/04/16 02:07:14;;;;;;;3.72;0.20;;;;;;;-146.25;100.00;52376.31;2197291;26;20020;-70
2024/04/16 02:08:15;;;;;;;1.75;0.20;;;;;;;-146.25;100.00;52364.13;2195454;26;38044;-70
2024/04/16 02:09:17;;;;;;;3.65;0.20;;;;;;;-146.25;100.00;52441.19;2194934;27;37033;-70
2024/04/16 02:10:22;;;;;;;0.75;0.25;;;;;;;-146.25;100.00;52396.59;2195103;27;22998;-70
2024/04/16 02:11:25;;;;;;;0.80;0.20;;;;;;;-146.25;100.00;52390.50;2195994;26;35703;-71
2024/04/16 02:12:27;;;;;;;1.83;0.20;;;;;;;-146.25;100.00;52406.72;2196254;27;20017;-70
2024/04/16 02:13:29;;;;;;;1.73;0.10;;;;;;;-146.25;100.00;52433.06;2196112;26;33361;-70
2024/04/16 02:14:31;;;;;;;1.40;0.15;;;;;;;-146.25;100.00;52394.56;2209218;26;33877;-70
2024/04/16 02:15:32;;;;;;;1.48;0.20;;;;;;;-146.25;100.00;52412.81;2196180;27;20014;-70
2024/04/16 02:16:34;;;;;;;0.70;0.10;;;;;;;-146.25;100.00;52366.16;2195182;27;34628;-71
2024/04/16 02:17:37;;;;;;;2.00;0.20;;;;;;;-146.25;100.00;52429.03;2196392;26;36705;-70
2024/04/16 02:18:39;;;;;;;2.97;0.30;;;;;;;-146.25;100.00;52414.84;2194771;27;32717;-71
2024/04/16 02:19:41;;;;;;;1.10;0.10;;;;;;;-146.25;100.00;52382.38;2195318;26;38833;-71
2024/04/16 02:20:44;;;;;;;1.45;0.15;;;;;;;-146.25;100.00;52402.66;2196726;26;20021;-71
2024/04/16 02:21:46;;;;;;;1.23;0.10;;;;;;;-146.25;100.00;52418.88;2196722;26;38192;-70
2024/04/16 02:22:47;;;;;;;1.05;0.28;;;;;;;-146.25;100.00;52392.53;2195064;27;35945;-70
2024/04/16 02:23:51;;;;;;;2.22;0.20;;;;;;;-146.25;100.00;52384.41;2195323;26;31146;-71
2024/04/16 02:24:53;;;;;;;1.80;0.30;;;;;;;-146.25;100.00;52451.31;2195273;26;37587;-71
2024/04/16 02:25:57;;;;;;;1.70;0.15;;;;;;;-146.25;100.00;52376.31;2195875;26;32997;-71
2024/04/16 02:26:59;;;;;;;1.00;0.10;;;;;;;-146.25;100.00;52408.75;2195602;26;30585;-71
2024/04/16 02:28:02;;;;;;;2.35;0.10;;;;;;;-146.25;100.00;52380.38;2196164;26;37583;-71
2024/04/16 02:29:04;;;;;;;0.90;0.10;;;;;;;-146.25;100.00;52406.72;2196562;26;20010;-71
2024/04/16 02:30:06;;;;;;;0.65;0.10;;;;;;;-146.25;100.00;52424.97;2196058;26;38040;-69
2024/04/16 02:31:08;;;;;;;0.65;0.20;;;;;;;-146.25;100.00;52386.44;2195763;26;36077;-71
2024/04/16 02:32:13;;;;;;;1.83;0.20;;;;;;;-146.25;100.00;52422.94;2196396;26;33007;-71
2024/04/16 02:33:16;;;;;;;1.23;0.20;;;;;;;-146.25;100.00;52382.38;2195605;26;36958;-69
2024/04/16 02:34:18;;;;;;;1.75;0.20;;;;;;;-146.25;100.00;52473.63;2196827;26;32913;-71
2024/04/16 02:35:21;;;;;;;2.25;0.20;;;;;;;-146.25;100.00;52380.38;2195851;26;33198;-71
2024/04/16 02:36:23;;;;;;;1.08;0.20;;;;;;;-146.25;100.00;52366.16;2195462;27;40425;-71
2024/04/16 02:37:25;;;;;;;0.70;0.17;;;;;;;-146.25;100.00;52402.66;2195070;26;33422;-71
2024/04/16 02:38:27;;;;;;;1.98;0.20;;;;;;;-146.25;100.00;52402.66;2195355;27;36669;-71
2024/04/16 02:39:29;;;;;;;1.70;0.20;;;;;;;-146.25;100.00;52429.03;2195225;26;30199;-71
2024/04/16 02:40:31;;;;;;;2.70;0.30;;;;;;;-146.25;100.00;52384.41;2209367;26;33442;-71
2024/04/16 02:41:32;;;;;;;2.10;0.20;;;;;;;-146.25;100.00;52422.94;2195769;26;35079;-71
2024/04/16 02:42:38;;;;;;;1.60;0.25;;;;;;;-146.25;100.00;52388.47;2209701;26;34741;-71
2024/04/16 02:43:39;;;;;;;2.40;0.25;;;;;;;-146.25;100.00;52408.75;2194913;27;39046;-71
2024/04/16 02:44:41;;;;;;;3.00;0.20;;;;;;;-146.25;100.00;52443.22;2195476;27;33387;-71
2024/04/16 02:45:45;;;;;;;2.35;0.30;;;;;;;-146.25;100.00;52402.66;2196747;26;35512;-72
2024/04/16 02:46:48;;;;;;;3.88;0.30;;;;;;;-146.25;100.00;52406.72;2198371;26;20016;-71
2024/04/16 02:47:52;;;;;;;1.83;0.30;;;;;;;-146.25;100.00;52388.47;2197066;26;31262;-71
2024/04/16 02:48:54;;;;;;;1.30;0.30;;;;;;;-146.25;100.00;52410.78;2197157;26;33000;-71
2024/04/16 02:49:56;;;;;;;2.50;0.30;;;;;;;-146.25;100.00;52408.75;2196163;27;30330;-71
2024/04/16 02:51:00;;;;;;;3.10;0.40;;;;;;;-146.25;100.00;52429.03;2196901;27;21317;-71
2024/04/16 02:52:02;;;;;;;2.97;0.40;;;;;;;-146.25;100.00;52412.81;2196857;26;35524;-70
2024/04/16 02:53:04;;;;;;;2.08;0.30;;;;;;;-146.25;100.00;52441.19;2197315;26;32162;-71
2024/04/16 02:54:06;;;;;;;2.92;0.30;;;;;;;-146.25;100.00;52386.44;2195968;26;37174;-70
2024/04/16 02:55:08;;;;;;;2.03;0.45;;;;;;;-146.25;100.00;52410.78;2183423;27;21038;-70
2024/04/16 02:56:10;;;;;;;1.80;0.30;;;;;;;-146.25;100.00;52376.31;2182631;27;35443;-71
2024/04/16 02:57:12;;;;;;;2.67;0.50;;;;;;;-146.25;100.00;52449.31;2196428;27;36536;-71
2024/04/16 02:58:14;;;;;;;2.22;0.32;;;;;;;-146.25;100.00;52453.34;2196865;26;33051;-71
2024/04/16 02:59:18;;;;;;;1.25;0.40;;;;;;;-146.25;100.00;52382.38;2197391;26;34445;-71
2024/04/16 03:00:20;;;;;;;1.63;0.60;;;;;;;-146.25;100.00;52424.97;2196487;27;20003;-72
2024/04/16 03:01:22;;;;;;;3.50;0.60;;;;;;;-146.25;100.00;52408.75;2196273;26;36828;-71
2024/04/16 03:02:24;;;;;;;2.05;0.45;;;;;;;-146.25;100.00;52408.75;2196843;26;34695;-70
2024/04/16 03:03:25;;;;;;;1.92;0.57;;;;;;;-146.25;100.00;52437.13;2197228;26;32241;-70
2024/04/16 03:04:30;;;;;;;2.50;0.70;;;;;;;-146.25;100.00;52394.56;2197009;27;29578;-70
2024/04/16 03:05:34;;;;;;;2.88;0.50;;;;;;;-146.25;100.00;52388.47;2197367;26;33114;-70
2024/04/16 03:06:36;;;;;;;3.33;0.73;;;;;;;-146.25;100.00;52449.31;2196821;26;36895;-70
2024/04/16 03:07:40;;;;;;;2.50;0.77;;;;;;;-146.25;100.00;52441.19;2197175;26;34789;-70
2024/04/16 03:08:42;;;;;;;3.28;0.60;;;;;;;-146.25;100.00;52412.81;2196955;26;31183;-71
2024/04/16 03:09:44;;;;;;;3.08;0.73;;;;;;;-146.25;100.00;52372.25;2197087;26;36212;-71
2024/04/16 03:10:46;;;;;;;3.75;0.60;;;;;;;-146.25;100.00;52400.63;2196856;26;32921;-70
2024/04/16 03:11:49;;;;;;;2.53;0.70;;;;;;;-146.25;100.00;52412.81;2197576;26;28321;-70
2024/04/16 03:12:54;;;;;;;2.22;0.80;;;;;;;-146.25;100.00;52394.56;2196922;26;33046;-70
2024/04/16 03:13:56;;;;;;;2.78;0.80;;;;;;;-146.25;100.00;52414.84;2197357;26;31589;-70
2024/04/16 03:15:00;;;;;;;2.45;0.80;;;;;;;-146.25;100.00;52418.88;2197465;26;20014;-70
2024/04/16 03:16:06;;;;;;;2.95;0.93;;;;;;;-146.25;100.00;52406.72;2197425;26;27026;-71
2024/04/16 03:17:08;;;;;;;3.80;1.10;;;;;;;-146.25;100.00;52412.81;2196803;26;37189;-71
2024/04/16 03:18:10;;;;;;;1.60;0.90;;;;;;;-146.25;100.00;52402.66;2197467;26;20002;-70
2024/04/16 03:19:12;;;;;;;2.08;1.00;;;;;;;-146.25;100.00;52412.81;2197188;26;34942;-71
2024/04/16 03:20:14;;;;;;;1.88;0.85;;;;;;;-146.25;100.00;52453.34;2197120;26;34749;-70
2024/04/16 03:21:16;;;;;;;2.72;0.80;;;;;;;-146.25;100.00;52414.84;2196885;26;33453;-70
2024/04/16 03:22:18;;;;;;;2.63;1.00;;;;;;;-146.25;100.00;52420.91;2197061;26;35523;-70
2024/04/16 03:23:20;;;;;;;4.38;1.10;;;;;;;-146.25;100.00;52408.75;2196980;26;27370;-70
2024/04/16 03:24:24;;;;;;;2.55;0.70;;;;;;;-146.25;100.00;52435.09;2197922;26;20132;-70
2024/04/16 03:25:26;;;;;;;3.42;0.90;;;;;;;-146.25;100.00;52392.53;2196594;26;37714;-70
2024/04/16 03:26:27;;;;;;;1.45;0.60;;;;;;;-146.25;100.00;52396.59;2203435;26;31452;-71
2024/04/16 03:27:29;;;;;;;2.15;0.90;;;;;;;-146.25;100.00;52433.06;2211332;26;31646;-70
2024/04/16 03:28:31;;;;;;;1.55;0.60;;;;;;;-146.25;100.00;52445.25;2210532;26;36614;-70
2024/04/16 03:29:33;;;;;;;2.88;0.80;;;;;;;-146.25;100.00;52406.72;2210217;26;34373;-68
2024/04/16 03:30:36;;;;;;;3.75;0.80;;;;;;;-146.25;100.00;52433.06;2212124;26;20005;-70
2024/04/16 03:31:38;;;;;;;3.40;0.70;;;;;;;-146.25;100.00;52427.00;2197696;26;37205;-70
2024/04/16 03:32:40;;;;;;;1.83;0.80;;;;;;;-146.25;100.00;52429.03;2197050;26;36606;-70
2024/04/16 03:33:45;;;;;;;2.13;0.80;;;;;;;-146.25;100.00;52418.88;2196531;26;34575;-70
2024/04/16 03:34:47;;;;;;;2.13;0.90;;;;;;;-146.25;100.00;52404.69;2196262;27;36176;-71
2024/04/16 03:35:57;;;;;;;3.28;0.77;;;;;;;-146.25;100.00;52384.41;2196662;26;21076;-70
2024/04/16 03:37:00;;;;;;;1.60;0.60;;;;;;;-146.25;100.00;52433.06;2197015;26;37941;-71
2024/04/16 03:38:02;;;;;;;1.60;0.70;;;;;;;-146.25;100.00;52408.75;2196937;26;30200;-71
2024/04/16 03:39:04;;;;;;;2.95;0.80;;;;;;;-146.25;100.00;52396.59;2196891;26;33923;-71
2024/04/16 03:40:07;;;;;;;3.08;0.80;;;;;;;-146.25;100.00;52433.06;2196885;26;33047;-70
2024/04/16 03:41:09;;;;;;;2.10;0.70;;;;;;;-146.25;100.00;52435.09;2198168;26;20021;-69
2024/04/16 03:42:11;;;;;;;2.35;0.80;;;;;;;-146.25;100.00;52410.78;2196650;26;36174;-70
2024/04/16 03:43:12;;;;;;;2.85;0.55;;;;;;;-146.25;100.00;52380.38;2197241;26;35705;-70
2024/04/16 03:44:14;;;;;;;1.52;0.70;;;;;;;-146.25;100.00;52390.50;2196876;26;32709;-70
2024/04/16 03:45:16;;;;;;;3.60;0.40;;;;;;;-146.25;100.00;52441.19;2195914;26;38087;-70
2024/04/16 03:46:18;;;;;;;1.15;0.60;;;;;;;-146.25;100.00;52424.97;2195736;26;34653;-70
2024/04/16 03:47:21;;;;;;;2.33;0.60;;;;;;;-146.25;100.00;52400.63;2210138;26;35967;-70
2024/04/16 03:48:25;;;;;;;2.25;0.60;;;;;;;-146.25;100.00;52360.09;2196552;26;36632;-70
2024/04/16 03:49:27;;;;;;;1.65;0.60;;;;;;;-146.25;100.00;52433.06;2196204;27;31225;-71
2024/04/16 03:50:29;;;;;;;1.50;0.60;;;;;;;-146.25;100.00;52412.81;2195713;27;38013;-70
2024/04/16 03:51:31;;;;;;;1.38;0.50;;;;;;;-146.25;100.00;52406.72;2197076;26;34361;-71
2024/04/16 03:52:33;;;;;;;1.63;0.50;;;;;;;-146.25;100.00;52376.31;2196713;26;32907;-70
2024/04/16 03:53:35;;;;;;;2.30;0.57;;;;;;;-146.25;100.00;52416.84;2196932;26;39186;-71
2024/04/16 03:54:37;;;;;;;2.28;0.70;;;;;;;-146.25;100.00;52416.84;2196724;26;33648;-70
2024/04/16 03:55:39;;;;;;;1.50;0.70;;;;;;;-146.25;100.00;52416.84;2196919;26;34457;-70
2024/04/16 03:56:42;;;;;;;1.70;0.47;;;;;;;-146.25;100.00;52394.56;2195204;26;36314;-71
2024/04/16 03:57:45;;;;;;;2.15;0.40;;;;;;;-146.25;100.00;52398.59;2196145;27;33003;-71
2024/04/16 04:01:34;;;;;;;3.22;0.30;;;;;;;-146.25;100.00;52433.06;2196859;26;38798;-70
2024/04/16 04:02:36;;;;;;;1.80;0.60;;;;;;;-146.25;100.00;52416.84;2195701;27;34832;-71
2024/04/16 04:03:39;;;;;;;3.22;0.40;;;;;;;-146.25;100.00;52424.97;2196345;27;35053;-71
2024/04/16 04:04:41;;;;;;;1.83;0.47;;;;;;;-146.25;100.00;52394.56;2195637;27;37007;-70
2024/04/16 04:05:43;;;;;;;2.38;0.45;;;;;;;-146.25;100.00;52410.78;2196232;26;31649;-71
2024/04/16 04:06:45;;;;;;;2.97;0.60;;;;;;;-146.25;100.00;52408.75;2195654;26;36373;-70
2024/04/16 04:07:47;;;;;;;2.58;0.40;;;;;;;-146.25;100.00;52437.13;2196277;27;39413;-71
2024/04/16 04:08:49;;;;;;;4.22;0.75;;;;;;;-146.25;100.00;52429.03;2196614;26;34903;-71
2024/04/16 04:09:51;;;;;;;1.88;0.50;;;;;;;-146.25;100.00;52420.91;2196788;26;38496;-71
2024/04/16 04:10:53;;;;;;;1.85;0.40;;;;;;;-146.25;100.00;52412.81;2196575;26;33037;-71
2024/04/16 04:11:58;;;;;;;1.95;0.50;;;;;;;-146.25;100.00;52453.34;2197832;26;20903;-71
2024/04/16 04:13:00;;;;;;;1.60;0.52;;;;;;;-146.25;100.00;52404.69;2196381;26;39472;-71
2024/04/16 04:14:02;;;;;;;2.63;0.60;;;;;;;-146.25;100.00;52404.69;2196933;26;32955;-69
2024/04/16 04:15:04;;;;;;;1.50;0.57;;;;;;;-146.25;100.00;52396.59;2196492;26;36745;-71
2024/04/16 04:16:06;;;;;;;1.95;0.40;;;;;;;-146.25;100.00;52412.81;2196141;26;32583;-71
2024/04/16 04:17:08;;;;;;;2.92;0.60;;;;;;;-146.25;100.00;52427.00;2195980;26;31717;-71
2024/04/16 04:18:12;;;;;;;3.92;0.63;;;;;;;-146.25;100.00;52386.44;2195868;27;36625;-69
2024/04/16 04:19:15;;;;;;;2.80;0.63;;;;;;;-146.25;100.00;52447.28;2195632;27;34851;-70
2024/04/16 04:20:19;;;;;;;3.35;0.70;;;;;;;-146.25;100.00;52437.13;2196989;26;34401;-71
2024/04/16 04:21:21;;;;;;;2.15;0.57;;;;;;;-146.25;100.00;52424.97;2196569;26;34357;-71
2024/04/16 04:22:23;;;;;;;1.50;0.60;;;;;;;-146.25;100.00;52408.75;2210613;26;36236;-70
2024/04/16 04:23:24;;;;;;;2.15;0.70;;;;;;;-146.25;100.00;52433.06;2210930;26;33816;-70
2024/04/16 04:24:26;;;;;;;2.35;0.40;;;;;;;-146.25;100.00;52429.03;2211237;26;33138;-69
2024/04/16 04:25:33;;;;;;;1.63;0.60;;;;;;;-146.25;100.00;52420.91;2211567;26;20009;-71
2024/04/16 04:26:35;;;;;;;3.25;0.80;;;;;;;-146.25;100.00;52427.00;2211768;26;32157;-71
2024/04/16 04:27:41;;;;;;;3.72;0.70;;;;;;;-146.25;100.00;52449.31;2210805;26;36068;-71
2024/04/16 04:28:43;;;;;;;2.88;0.90;;;;;;;-146.25;100.00;52400.63;2211360;26;37097;-71
2024/04/16 04:29:45;;;;;;;3.72;0.80;;;;;;;-146.25;100.00;52402.66;2210777;26;32754;-71
2024/04/16 04:30:52;;;;;;;5.35;0.80;;;;;;;-146.25;100.00;52422.94;2209940;26;35155;-70
2024/04/16 04:31:58;;;;;;;3.08;0.98;;;;;;;-146.25;100.00;52400.63;2197317;26;20017;-71
2024/04/16 04:33:00;;;;;;;5.00;1.35;;;;;;;-146.25;100.00;52433.06;2197086;26;35112;-71
2024/04/16 04:34:02;;;;;;;3.80;0.93;;;;;;;-146.25;100.00;52408.75;2196195;26;34294;-71
2024/04/16 04:35:08;;;;;;;4.47;0.82;;;;;;;-146.25;100.00;52408.75;2197535;26;20005;-71
2024/04/16 04:36:12;;;;;;;2.13;0.60;;;;;;;-146.25;100.00;52441.19;2195585;27;36357;-70
2024/04/16 04:37:14;;;;;;;7.97;1.17;;;;;;;-146.25;100.00;52384.41;2183003;27;32966;-71
2024/04/16 04:38:16;;;;;;;3.65;0.90;;;;;;;-146.25;100.00;52453.34;2195697;26;32220;-71
2024/04/16 04:39:21;;;;;;;3.42;1.15;;;;;;;-146.25;100.00;52437.13;2196596;26;36895;-71
2024/04/16 04:40:23;;;;;;;3.85;1.38;;;;;;;-146.25;100.00;52412.81;2196922;26;32691;-71
2024/04/16 04:41:24;;;;;;;3.40;1.40;;;;;;;-146.25;100.00;52400.63;2196998;26;36490;-71
2024/04/16 04:42:28;;;;;;;4.78;1.20;;;;;;;-146.25;100.00;52382.38;2196689;26;36166;-70
2024/04/16 04:43:31;;;;;;;6.03;1.30;;;;;;;-146.25;100.00;52418.88;2196731;26;30450;-71
2024/04/16 04:44:33;;;;;;;4.03;1.40;;;;;;;-146.25;100.00;52412.81;2196604;26;37946;-71
2024/04/16 04:45:35;;;;;;;3.15;1.08;;;;;;;-146.25;100.00;52420.91;2196882;26;30230;-71
2024/04/16 04:46:37;;;;;;;2.75;1.17;;;;;;;-146.25;100.00;52408.75;2209896;26;38149;-72
2024/04/16 04:47:39;;;;;;;4.22;1.30;;;;;;;-146.25;100.00;52402.66;2210314;26;36911;-71
2024/04/16 04:48:41;;;;;;;4.53;1.35;;;;;;;-146.25;100.00;52441.19;2195804;26;33744;-70